sensor_id;sensor_type;location;lat;lon;timestamp;P1;durP1;ratioP1;P2;durP2;ratioP2
55150;SDS011;41041;43.162;20.538;2023-12-04T00:02:07;12.55;;;7.50;;
55150;SDS011;41041;43.162;20.538;2023-12-04T00:04:33;13.95;;;8.23;;
55150;SDS011;41041;43.162;20.538;2023-12-04T00:06:59;13.60;;;7.80;;
55150;SDS011;41041;43.162;20.538;2023-12-04T00:09:25;17.80;;;9.60;;
55150;SDS011;41041;43.162;20.538;2023-12-04T00:11:52;18.95;;;10.30;;
55150;SDS011;41041;43.162;20.538;2023-12-04T00:14:18;14.65;;;8.43;;
55150;SDS011;41041;43.162;20.538;2023-12-04T00:16:44;17.17;;;10.43;;
55150;SDS011;41041;43.162;20.538;2023-12-04T00:19:10;15.23;;;9.80;;
55150;SDS011;41041;43.162;20.538;2023-12-04T00:21:37;17.40;;;10.32;;
55150;SDS011;41041;43.162;20.538;2023-12-04T00:27:06;10.85;;;7.07;;
55150;SDS011;41041;43.162;20.538;2023-12-04T00:29:32;12.70;;;6.97;;
55150;SDS011;41041;43.162;20.538;2023-12-04T00:31:59;12.05;;;7.60;;
55150;SDS011;41041;43.162;20.538;2023-12-04T00:37:09;13.10;;;7.70;;
55150;SDS011;41041;43.162;20.538;2023-12-04T00:39:35;12.02;;;7.25;;
55150;SDS011;41041;43.162;20.538;2023-12-04T00:42:02;12.65;;;7.50;;
55150;SDS011;41041;43.162;20.538;2023-12-04T00:44:28;12.52;;;8.10;;
55150;SDS011;41041;43.162;20.538;2023-12-04T00:49:46;11.07;;;7.03;;
55150;SDS011;41041;43.162;20.538;2023-12-04T00:52:12;14.88;;;8.10;;
55150;SDS011;41041;43.162;20.538;2023-12-04T00:54:39;10.77;;;7.20;;
55150;SDS011;41041;43.162;20.538;2023-12-04T00:57:06;16.92;;;9.43;;
55150;SDS011;41041;43.162;20.538;2023-12-04T00:59:32;18.08;;;10.68;;
55150;SDS011;41041;43.162;20.538;2023-12-04T01:01:58;14.50;;;8.82;;
55150;SDS011;41041;43.162;20.538;2023-12-04T01:04:24;12.10;;;7.82;;
55150;SDS011;41041;43.162;20.538;2023-12-04T01:06:51;14.45;;;8.90;;
55150;SDS011;41041;43.162;20.538;2023-12-04T01:12:21;12.18;;;7.95;;
55150;SDS011;41041;43.162;20.538;2023-12-04T01:14:47;14.75;;;10.57;;
55150;SDS011;41041;43.162;20.538;2023-12-04T01:17:13;13.93;;;8.65;;
55150;SDS011;41041;43.162;20.538;2023-12-04T01:19:39;15.27;;;8.32;;
55150;SDS011;41041;43.162;20.538;2023-12-04T01:22:06;11.52;;;7.40;;
55150;SDS011;41041;43.162;20.538;2023-12-04T01:24:33;12.18;;;7.43;;
55150;SDS011;41041;43.162;20.538;2023-12-04T01:26:59;12.40;;;8.18;;
55150;SDS011;41041;43.162;20.538;2023-12-04T01:29:25;14.52;;;9.63;;
55150;SDS011;41041;43.162;20.538;2023-12-04T01:31:51;16.42;;;10.32;;
55150;SDS011;41041;43.162;20.538;2023-12-04T01:34:17;11.80;;;7.45;;
55150;SDS011;41041;43.162;20.538;2023-12-04T01:36:43;13.63;;;7.72;;
55150;SDS011;41041;43.162;20.538;2023-12-04T01:39:09;14.52;;;9.18;;
55150;SDS011;41041;43.162;20.538;2023-12-04T01:41:36;14.57;;;8.85;;
55150;SDS011;41041;43.162;20.538;2023-12-04T01:44:02;11.38;;;7.10;;
55150;SDS011;41041;43.162;20.538;2023-12-04T01:46:28;17.65;;;10.10;;
55150;SDS011;41041;43.162;20.538;2023-12-04T01:48:54;16.35;;;9.27;;
55150;SDS011;41041;43.162;20.538;2023-12-04T01:51:20;12.38;;;7.43;;
55150;SDS011;41041;43.162;20.538;2023-12-04T01:53:46;12.25;;;8.15;;
55150;SDS011;41041;43.162;20.538;2023-12-04T01:56:13;12.80;;;7.72;;
55150;SDS011;41041;43.162;20.538;2023-12-04T01:58:40;12.23;;;7.40;;
55150;SDS011;41041;43.162;20.538;2023-12-04T02:01:06;12.48;;;6.95;;
55150;SDS011;41041;43.162;20.538;2023-12-04T02:03:33;13.13;;;7.82;;
55150;SDS011;41041;43.162;20.538;2023-12-04T02:05:59;13.45;;;8.40;;
55150;SDS011;41041;43.162;20.538;2023-12-04T02:08:27;14.77;;;9.02;;
55150;SDS011;41041;43.162;20.538;2023-12-04T02:13:27;13.98;;;8.38;;
55150;SDS011;41041;43.162;20.538;2023-12-04T02:15:53;12.57;;;7.25;;
55150;SDS011;41041;43.162;20.538;2023-12-04T02:18:20;12.68;;;7.63;;
55150;SDS011;41041;43.162;20.538;2023-12-04T02:20:47;12.50;;;7.65;;
55150;SDS011;41041;43.162;20.538;2023-12-04T02:23:13;11.20;;;6.82;;
55150;SDS011;41041;43.162;20.538;2023-12-04T02:25:39;11.32;;;7.45;;
55150;SDS011;41041;43.162;20.538;2023-12-04T02:28:06;11.80;;;7.20;;
55150;SDS011;41041;43.162;20.538;2023-12-04T02:30:34;11.05;;;7.07;;
55150;SDS011;41041;43.162;20.538;2023-12-04T02:33:03;12.32;;;7.70;;
55150;SDS011;41041;43.162;20.538;2023-12-04T02:35:29;13.63;;;7.70;;
55150;SDS011;41041;43.162;20.538;2023-12-04T02:37:57;12.93;;;8.05;;
55150;SDS011;41041;43.162;20.538;2023-12-04T02:40:24;12.90;;;7.97;;
55150;SDS011;41041;43.162;20.538;2023-12-04T02:42:51;15.30;;;7.78;;
55150;SDS011;41041;43.162;20.538;2023-12-04T02:45:17;12.02;;;7.45;;
55150;SDS011;41041;43.162;20.538;2023-12-04T02:47:43;13.05;;;7.78;;
55150;SDS011;41041;43.162;20.538;2023-12-04T02:50:09;13.07;;;8.00;;
55150;SDS011;41041;43.162;20.538;2023-12-04T02:52:35;13.73;;;8.75;;
55150;SDS011;41041;43.162;20.538;2023-12-04T02:55:01;12.38;;;7.60;;
55150;SDS011;41041;43.162;20.538;2023-12-04T02:57:28;11.43;;;7.63;;
55150;SDS011;41041;43.162;20.538;2023-12-04T02:59:54;11.25;;;7.03;;
55150;SDS011;41041;43.162;20.538;2023-12-04T03:02:20;12.68;;;7.90;;
55150;SDS011;41041;43.162;20.538;2023-12-04T03:04:46;13.85;;;8.00;;
55150;SDS011;41041;43.162;20.538;2023-12-04T03:07:13;14.32;;;7.88;;
55150;SDS011;41041;43.162;20.538;2023-12-04T03:09:39;11.88;;;7.97;;
55150;SDS011;41041;43.162;20.538;2023-12-04T03:12:05;11.82;;;7.30;;
55150;SDS011;41041;43.162;20.538;2023-12-04T03:14:31;15.52;;;7.30;;
55150;SDS011;41041;43.162;20.538;2023-12-04T03:16:57;11.65;;;7.30;;
55150;SDS011;41041;43.162;20.538;2023-12-04T03:19:24;12.68;;;7.03;;
55150;SDS011;41041;43.162;20.538;2023-12-04T03:21:50;10.75;;;6.90;;
55150;SDS011;41041;43.162;20.538;2023-12-04T03:24:16;12.27;;;7.43;;
55150;SDS011;41041;43.162;20.538;2023-12-04T03:26:42;13.70;;;7.38;;
55150;SDS011;41041;43.162;20.538;2023-12-04T03:29:08;13.32;;;7.10;;
55150;SDS011;41041;43.162;20.538;2023-12-04T03:31:34;11.52;;;6.60;;
55150;SDS011;41041;43.162;20.538;2023-12-04T03:34:01;11.27;;;6.93;;
55150;SDS011;41041;43.162;20.538;2023-12-04T03:36:27;12.57;;;7.47;;
55150;SDS011;41041;43.162;20.538;2023-12-04T03:38:54;14.07;;;7.53;;
55150;SDS011;41041;43.162;20.538;2023-12-04T03:44:23;10.23;;;6.68;;
55150;SDS011;41041;43.162;20.538;2023-12-04T03:50:11;10.95;;;6.70;;
55150;SDS011;41041;43.162;20.538;2023-12-04T03:52:37;12.38;;;6.93;;
55150;SDS011;41041;43.162;20.538;2023-12-04T03:55:03;10.55;;;6.70;;
55150;SDS011;41041;43.162;20.538;2023-12-04T03:57:29;12.23;;;7.13;;
55150;SDS011;41041;43.162;20.538;2023-12-04T03:59:55;14.38;;;8.23;;
55150;SDS011;41041;43.162;20.538;2023-12-04T04:02:21;13.15;;;8.50;;
55150;SDS011;41041;43.162;20.538;2023-12-04T04:04:48;13.35;;;8.00;;
55150;SDS011;41041;43.162;20.538;2023-12-04T04:07:15;14.57;;;8.30;;
55150;SDS011;41041;43.162;20.538;2023-12-04T04:09:41;16.67;;;10.13;;
55150;SDS011;41041;43.162;20.538;2023-12-04T04:12:07;15.95;;;8.35;;
55150;SDS011;41041;43.162;20.538;2023-12-04T04:14:33;12.57;;;7.47;;
55150;SDS011;41041;43.162;20.538;2023-12-04T04:16:59;13.05;;;7.85;;
55150;SDS011;41041;43.162;20.538;2023-12-04T04:19:25;11.82;;;7.00;;
55150;SDS011;41041;43.162;20.538;2023-12-04T04:21:51;21.60;;;11.00;;
55150;SDS011;41041;43.162;20.538;2023-12-04T04:24:17;20.20;;;10.68;;
55150;SDS011;41041;43.162;20.538;2023-12-04T04:26:42;17.70;;;9.32;;
55150;SDS011;41041;43.162;20.538;2023-12-04T04:29:08;12.35;;;7.18;;
55150;SDS011;41041;43.162;20.538;2023-12-04T04:31:34;22.90;;;12.18;;
55150;SDS011;41041;43.162;20.538;2023-12-04T04:34:00;16.35;;;9.90;;
55150;SDS011;41041;43.162;20.538;2023-12-04T04:36:27;14.25;;;8.90;;
55150;SDS011;41041;43.162;20.538;2023-12-04T04:38:53;15.50;;;9.60;;
55150;SDS011;41041;43.162;20.538;2023-12-04T04:41:19;38.47;;;21.88;;
55150;SDS011;41041;43.162;20.538;2023-12-04T04:43:45;54.58;;;29.35;;
55150;SDS011;41041;43.162;20.538;2023-12-04T04:46:11;47.22;;;25.05;;
55150;SDS011;41041;43.162;20.538;2023-12-04T04:48:37;28.85;;;15.85;;
55150;SDS011;41041;43.162;20.538;2023-12-04T04:51:03;22.67;;;13.02;;
55150;SDS011;41041;43.162;20.538;2023-12-04T04:53:29;17.38;;;10.50;;
55150;SDS011;41041;43.162;20.538;2023-12-04T04:58:51;18.83;;;10.43;;
55150;SDS011;41041;43.162;20.538;2023-12-04T05:01:17;17.73;;;10.52;;
55150;SDS011;41041;43.162;20.538;2023-12-04T05:03:43;17.17;;;10.52;;
55150;SDS011;41041;43.162;20.538;2023-12-04T05:06:09;16.98;;;8.95;;
55150;SDS011;41041;43.162;20.538;2023-12-04T05:11:24;13.07;;;8.45;;
55150;SDS011;41041;43.162;20.538;2023-12-04T05:13:50;15.35;;;9.05;;
55150;SDS011;41041;43.162;20.538;2023-12-04T05:16:16;17.50;;;10.07;;
55150;SDS011;41041;43.162;20.538;2023-12-04T05:18:42;20.10;;;10.85;;
55150;SDS011;41041;43.162;20.538;2023-12-04T05:21:09;17.83;;;10.45;;
55150;SDS011;41041;43.162;20.538;2023-12-04T05:23:36;14.15;;;8.68;;
55150;SDS011;41041;43.162;20.538;2023-12-04T05:26:02;11.00;;;7.18;;
55150;SDS011;41041;43.162;20.538;2023-12-04T05:28:28;10.05;;;6.75;;
55150;SDS011;41041;43.162;20.538;2023-12-04T05:30:54;11.40;;;7.30;;
55150;SDS011;41041;43.162;20.538;2023-12-04T05:33:20;10.55;;;6.60;;
55150;SDS011;41041;43.162;20.538;2023-12-04T05:35:47;11.43;;;7.55;;
55150;SDS011;41041;43.162;20.538;2023-12-04T05:38:16;9.88;;;6.78;;
55150;SDS011;41041;43.162;20.538;2023-12-04T05:40:42;11.10;;;7.10;;
55150;SDS011;41041;43.162;20.538;2023-12-04T05:43:08;10.50;;;6.88;;
55150;SDS011;41041;43.162;20.538;2023-12-04T05:48:55;13.00;;;7.68;;
55150;SDS011;41041;43.162;20.538;2023-12-04T05:51:21;14.27;;;7.13;;
55150;SDS011;41041;43.162;20.538;2023-12-04T05:53:47;11.63;;;7.00;;
55150;SDS011;41041;43.162;20.538;2023-12-04T05:59:35;12.02;;;6.55;;
55150;SDS011;41041;43.162;20.538;2023-12-04T06:02:01;10.10;;;6.07;;
55150;SDS011;41041;43.162;20.538;2023-12-04T06:04:26;10.13;;;6.22;;
55150;SDS011;41041;43.162;20.538;2023-12-04T06:10:14;10.82;;;6.32;;
55150;SDS011;41041;43.162;20.538;2023-12-04T06:12:40;13.52;;;6.47;;
55150;SDS011;41041;43.162;20.538;2023-12-04T06:15:06;27.65;;;13.38;;
55150;SDS011;41041;43.162;20.538;2023-12-04T06:17:33;23.42;;;11.90;;
55150;SDS011;41041;43.162;20.538;2023-12-04T06:19:58;9.90;;;6.10;;
55150;SDS011;41041;43.162;20.538;2023-12-04T06:22:24;9.90;;;5.95;;
55150;SDS011;41041;43.162;20.538;2023-12-04T06:24:50;9.60;;;6.20;;
55150;SDS011;41041;43.162;20.538;2023-12-04T06:27:17;10.73;;;5.68;;
55150;SDS011;41041;43.162;20.538;2023-12-04T06:29:46;11.18;;;5.50;;
55150;SDS011;41041;43.162;20.538;2023-12-04T06:32:14;9.68;;;5.82;;
55150;SDS011;41041;43.162;20.538;2023-12-04T06:34:40;8.63;;;5.40;;
55150;SDS011;41041;43.162;20.538;2023-12-04T06:37:10;11.38;;;6.60;;
55150;SDS011;41041;43.162;20.538;2023-12-04T06:39:36;8.98;;;5.80;;
55150;SDS011;41041;43.162;20.538;2023-12-04T06:42:04;8.45;;;5.03;;
55150;SDS011;41041;43.162;20.538;2023-12-04T06:44:31;40.75;;;14.88;;
55150;SDS011;41041;43.162;20.538;2023-12-04T06:46:58;26.90;;;11.68;;
55150;SDS011;41041;43.162;20.538;2023-12-04T06:49:27;22.23;;;10.13;;
55150;SDS011;41041;43.162;20.538;2023-12-04T07:00:19;15.57;;;10.18;;
55150;SDS011;41041;43.162;20.538;2023-12-04T07:02:48;17.98;;;11.15;;
55150;SDS011;41041;43.162;20.538;2023-12-04T07:05:14;13.88;;;8.35;;
55150;SDS011;41041;43.162;20.538;2023-12-04T07:07:41;12.60;;;7.60;;
55150;SDS011;41041;43.162;20.538;2023-12-04T07:10:07;11.93;;;7.45;;
55150;SDS011;41041;43.162;20.538;2023-12-04T07:12:35;15.95;;;8.52;;
55150;SDS011;41041;43.162;20.538;2023-12-04T07:27:13;16.42;;;8.60;;
55150;SDS011;41041;43.162;20.538;2023-12-04T07:29:39;30.77;;;16.15;;
55150;SDS011;41041;43.162;20.538;2023-12-04T07:32:05;52.70;;;26.52;;
55150;SDS011;41041;43.162;20.538;2023-12-04T07:34:31;23.08;;;13.68;;
55150;SDS011;41041;43.162;20.538;2023-12-04T07:36:57;17.48;;;10.70;;
55150;SDS011;41041;43.162;20.538;2023-12-04T07:45:10;13.27;;;7.03;;
55150;SDS011;41041;43.162;20.538;2023-12-04T07:47:36;13.20;;;7.68;;
55150;SDS011;41041;43.162;20.538;2023-12-04T07:50:02;12.45;;;7.70;;
55150;SDS011;41041;43.162;20.538;2023-12-04T07:52:28;10.00;;;6.38;;
55150;SDS011;41041;43.162;20.538;2023-12-04T07:54:54;13.60;;;7.43;;
55150;SDS011;41041;43.162;20.538;2023-12-04T07:57:20;11.27;;;6.80;;
55150;SDS011;41041;43.162;20.538;2023-12-04T07:59:46;9.50;;;6.00;;
55150;SDS011;41041;43.162;20.538;2023-12-04T08:02:11;13.25;;;7.40;;
55150;SDS011;41041;43.162;20.538;2023-12-04T08:04:37;9.80;;;6.20;;
55150;SDS011;41041;43.162;20.538;2023-12-04T08:07:03;17.45;;;8.40;;
55150;SDS011;41041;43.162;20.538;2023-12-04T08:09:30;18.13;;;9.48;;
55150;SDS011;41041;43.162;20.538;2023-12-04T08:11:56;16.70;;;8.02;;
55150;SDS011;41041;43.162;20.538;2023-12-04T08:14:22;14.77;;;8.18;;
55150;SDS011;41041;43.162;20.538;2023-12-04T08:16:48;11.93;;;6.97;;
55150;SDS011;41041;43.162;20.538;2023-12-04T08:19:15;12.40;;;7.13;;
55150;SDS011;41041;43.162;20.538;2023-12-04T08:24:45;13.60;;;6.85;;
55150;SDS011;41041;43.162;20.538;2023-12-04T08:27:11;12.98;;;7.03;;
55150;SDS011;41041;43.162;20.538;2023-12-04T08:29:39;11.68;;;6.68;;
55150;SDS011;41041;43.162;20.538;2023-12-04T08:32:13;11.85;;;7.22;;
55150;SDS011;41041;43.162;20.538;2023-12-04T08:34:40;12.48;;;7.43;;
55150;SDS011;41041;43.162;20.538;2023-12-04T08:37:06;11.57;;;7.28;;
55150;SDS011;41041;43.162;20.538;2023-12-04T08:39:34;11.73;;;7.57;;
55150;SDS011;41041;43.162;20.538;2023-12-04T08:44:53;13.75;;;7.10;;
55150;SDS011;41041;43.162;20.538;2023-12-04T08:47:19;14.20;;;7.45;;
55150;SDS011;41041;43.162;20.538;2023-12-04T08:49:45;12.65;;;7.45;;
55150;SDS011;41041;43.162;20.538;2023-12-04T08:52:12;15.77;;;6.90;;
55150;SDS011;41041;43.162;20.538;2023-12-04T08:54:40;13.50;;;8.25;;
55150;SDS011;41041;43.162;20.538;2023-12-04T08:57:07;17.42;;;10.65;;
55150;SDS011;41041;43.162;20.538;2023-12-04T08:59:34;17.13;;;10.55;;
55150;SDS011;41041;43.162;20.538;2023-12-04T09:02:00;13.32;;;7.30;;
55150;SDS011;41041;43.162;20.538;2023-12-04T09:04:30;32.60;;;18.40;;
55150;SDS011;41041;43.162;20.538;2023-12-04T09:06:56;13.57;;;7.03;;
55150;SDS011;41041;43.162;20.538;2023-12-04T09:09:23;18.25;;;10.57;;
55150;SDS011;41041;43.162;20.538;2023-12-04T09:11:49;13.85;;;7.82;;
55150;SDS011;41041;43.162;20.538;2023-12-04T09:14:15;10.35;;;5.93;;
55150;SDS011;41041;43.162;20.538;2023-12-04T09:16:41;11.82;;;6.32;;
55150;SDS011;41041;43.162;20.538;2023-12-04T09:19:07;12.05;;;6.15;;
55150;SDS011;41041;43.162;20.538;2023-12-04T09:21:34;19.35;;;6.47;;
55150;SDS011;41041;43.162;20.538;2023-12-04T09:24:01;11.73;;;6.72;;
55150;SDS011;41041;43.162;20.538;2023-12-04T09:26:27;11.20;;;6.28;;
55150;SDS011;41041;43.162;20.538;2023-12-04T09:28:52;11.18;;;6.57;;
55150;SDS011;41041;43.162;20.538;2023-12-04T09:31:18;11.13;;;6.55;;
55150;SDS011;41041;43.162;20.538;2023-12-04T09:33:44;20.98;;;11.05;;
55150;SDS011;41041;43.162;20.538;2023-12-04T09:36:10;18.85;;;9.27;;
55150;SDS011;41041;43.162;20.538;2023-12-04T09:38:36;16.00;;;8.70;;
55150;SDS011;41041;43.162;20.538;2023-12-04T09:41:03;15.20;;;8.82;;
55150;SDS011;41041;43.162;20.538;2023-12-04T09:43:35;28.88;;;11.65;;
55150;SDS011;41041;43.162;20.538;2023-12-04T09:46:02;16.17;;;8.82;;
55150;SDS011;41041;43.162;20.538;2023-12-04T09:48:28;18.17;;;10.90;;
55150;SDS011;41041;43.162;20.538;2023-12-04T09:50:55;20.48;;;11.93;;
55150;SDS011;41041;43.162;20.538;2023-12-04T09:53:22;23.17;;;11.63;;
55150;SDS011;41041;43.162;20.538;2023-12-04T09:55:51;23.20;;;13.35;;
55150;SDS011;41041;43.162;20.538;2023-12-04T10:00:56;28.20;;;15.07;;
55150;SDS011;41041;43.162;20.538;2023-12-04T10:03:23;20.13;;;11.82;;
55150;SDS011;41041;43.162;20.538;2023-12-04T10:05:49;22.88;;;14.68;;
55150;SDS011;41041;43.162;20.538;2023-12-04T10:08:16;25.73;;;13.05;;
55150;SDS011;41041;43.162;20.538;2023-12-04T10:10:42;23.17;;;13.38;;
55150;SDS011;41041;43.162;20.538;2023-12-04T10:13:09;221.65;;;50.70;;
55150;SDS011;41041;43.162;20.538;2023-12-04T10:15:45;23.73;;;11.75;;
55150;SDS011;41041;43.162;20.538;2023-12-04T10:18:23;16.73;;;10.70;;
55150;SDS011;41041;43.162;20.538;2023-12-04T10:20:55;21.30;;;11.20;;
55150;SDS011;41041;43.162;20.538;2023-12-04T10:23:22;11.05;;;6.82;;
55150;SDS011;41041;43.162;20.538;2023-12-04T10:25:48;21.58;;;11.60;;
55150;SDS011;41041;43.162;20.538;2023-12-04T10:28:15;24.45;;;13.90;;
55150;SDS011;41041;43.162;20.538;2023-12-04T10:30:42;30.35;;;15.10;;
55150;SDS011;41041;43.162;20.538;2023-12-04T10:33:08;35.13;;;19.77;;
55150;SDS011;41041;43.162;20.538;2023-12-04T10:39:03;57.25;;;31.42;;
55150;SDS011;41041;43.162;20.538;2023-12-04T10:41:32;55.10;;;28.52;;
55150;SDS011;41041;43.162;20.538;2023-12-04T10:43:58;41.72;;;22.63;;
55150;SDS011;41041;43.162;20.538;2023-12-04T10:46:26;32.17;;;19.00;;
55150;SDS011;41041;43.162;20.538;2023-12-04T10:48:52;48.28;;;26.98;;
55150;SDS011;41041;43.162;20.538;2023-12-04T10:51:19;22.15;;;14.18;;
55150;SDS011;41041;43.162;20.538;2023-12-04T10:53:47;20.23;;;13.23;;
55150;SDS011;41041;43.162;20.538;2023-12-04T10:56:17;20.30;;;12.05;;
55150;SDS011;41041;43.162;20.538;2023-12-04T10:58:49;26.50;;;15.43;;
55150;SDS011;41041;43.162;20.538;2023-12-04T11:01:16;20.20;;;12.40;;
55150;SDS011;41041;43.162;20.538;2023-12-04T11:03:44;20.90;;;12.73;;
55150;SDS011;41041;43.162;20.538;2023-12-04T11:06:15;17.77;;;10.85;;
55150;SDS011;41041;43.162;20.538;2023-12-04T11:08:42;27.25;;;14.20;;
55150;SDS011;41041;43.162;20.538;2023-12-04T11:11:15;16.95;;;10.50;;
55150;SDS011;41041;43.162;20.538;2023-12-04T11:13:45;15.80;;;10.48;;
55150;SDS011;41041;43.162;20.538;2023-12-04T11:16:20;23.02;;;13.43;;
55150;SDS011;41041;43.162;20.538;2023-12-04T11:18:56;24.10;;;13.25;;
55150;SDS011;41041;43.162;20.538;2023-12-04T11:23:57;19.67;;;11.95;;
55150;SDS011;41041;43.162;20.538;2023-12-04T11:26:23;36.67;;;19.92;;
55150;SDS011;41041;43.162;20.538;2023-12-04T11:28:50;23.38;;;12.68;;
55150;SDS011;41041;43.162;20.538;2023-12-04T11:33:46;22.23;;;11.88;;
55150;SDS011;41041;43.162;20.538;2023-12-04T11:36:12;28.23;;;14.90;;
55150;SDS011;41041;43.162;20.538;2023-12-04T11:38:45;18.80;;;10.65;;
55150;SDS011;41041;43.162;20.538;2023-12-04T11:41:15;17.23;;;9.07;;
55150;SDS011;41041;43.162;20.538;2023-12-04T11:43:42;19.02;;;9.98;;
55150;SDS011;41041;43.162;20.538;2023-12-04T11:46:10;16.85;;;9.73;;
55150;SDS011;41041;43.162;20.538;2023-12-04T11:48:37;16.35;;;9.77;;
55150;SDS011;41041;43.162;20.538;2023-12-04T11:51:03;18.05;;;9.55;;
55150;SDS011;41041;43.162;20.538;2023-12-04T11:53:32;13.90;;;9.00;;
55150;SDS011;41041;43.162;20.538;2023-12-04T11:56:08;16.92;;;10.02;;
55150;SDS011;41041;43.162;20.538;2023-12-04T11:58:43;16.60;;;9.82;;
55150;SDS011;41041;43.162;20.538;2023-12-04T12:01:10;19.10;;;12.23;;
55150;SDS011;41041;43.162;20.538;2023-12-04T12:03:36;20.75;;;10.38;;
55150;SDS011;41041;43.162;20.538;2023-12-04T12:06:13;18.40;;;9.80;;
55150;SDS011;41041;43.162;20.538;2023-12-04T12:08:39;18.65;;;9.73;;
55150;SDS011;41041;43.162;20.538;2023-12-04T12:11:05;24.52;;;11.48;;
55150;SDS011;41041;43.162;20.538;2023-12-04T12:13:31;16.30;;;10.30;;
55150;SDS011;41041;43.162;20.538;2023-12-04T12:15:57;25.05;;;13.85;;
55150;SDS011;41041;43.162;20.538;2023-12-04T12:18:23;23.50;;;13.68;;
55150;SDS011;41041;43.162;20.538;2023-12-04T12:20:49;22.13;;;12.25;;
55150;SDS011;41041;43.162;20.538;2023-12-04T12:23:15;21.88;;;10.45;;
55150;SDS011;41041;43.162;20.538;2023-12-04T12:25:43;18.83;;;10.75;;
55150;SDS011;41041;43.162;20.538;2023-12-04T12:28:09;27.15;;;12.13;;
55150;SDS011;41041;43.162;20.538;2023-12-04T12:30:35;23.65;;;12.93;;
55150;SDS011;41041;43.162;20.538;2023-12-04T12:33:01;17.77;;;10.52;;
55150;SDS011;41041;43.162;20.538;2023-12-04T12:35:26;25.60;;;13.50;;
55150;SDS011;41041;43.162;20.538;2023-12-04T12:37:52;22.52;;;12.45;;
55150;SDS011;41041;43.162;20.538;2023-12-04T12:40:19;14.32;;;9.32;;
55150;SDS011;41041;43.162;20.538;2023-12-04T12:42:46;24.85;;;12.55;;
55150;SDS011;41041;43.162;20.538;2023-12-04T12:45:12;19.83;;;11.65;;
55150;SDS011;41041;43.162;20.538;2023-12-04T12:47:40;19.63;;;11.23;;
55150;SDS011;41041;43.162;20.538;2023-12-04T12:53:48;17.88;;;10.45;;
55150;SDS011;41041;43.162;20.538;2023-12-04T12:56:14;13.85;;;8.60;;
55150;SDS011;41041;43.162;20.538;2023-12-04T12:58:40;17.17;;;8.50;;
55150;SDS011;41041;43.162;20.538;2023-12-04T13:04:13;17.00;;;9.57;;
55150;SDS011;41041;43.162;20.538;2023-12-04T13:06:42;13.25;;;8.52;;
55150;SDS011;41041;43.162;20.538;2023-12-04T13:18:56;16.98;;;8.85;;
55150;SDS011;41041;43.162;20.538;2023-12-04T13:21:21;13.65;;;8.05;;
55150;SDS011;41041;43.162;20.538;2023-12-04T13:26:51;12.00;;;8.13;;
55150;SDS011;41041;43.162;20.538;2023-12-04T13:29:18;46.20;;;21.33;;
55150;SDS011;41041;43.162;20.538;2023-12-04T13:31:44;26.48;;;13.63;;
55150;SDS011;41041;43.162;20.538;2023-12-04T13:34:11;14.80;;;8.43;;
55150;SDS011;41041;43.162;20.538;2023-12-04T13:36:37;14.98;;;9.43;;
55150;SDS011;41041;43.162;20.538;2023-12-04T13:39:03;15.40;;;8.82;;
55150;SDS011;41041;43.162;20.538;2023-12-04T13:41:41;17.77;;;10.73;;
55150;SDS011;41041;43.162;20.538;2023-12-04T14:05:31;23.02;;;11.85;;
55150;SDS011;41041;43.162;20.538;2023-12-04T14:07:58;22.45;;;10.13;;
55150;SDS011;41041;43.162;20.538;2023-12-04T14:10:24;18.02;;;10.18;;
55150;SDS011;41041;43.162;20.538;2023-12-04T14:19:14;17.05;;;10.82;;
55150;SDS011;41041;43.162;20.538;2023-12-04T15:52:09;72.40;;;30.75;;
55150;SDS011;41041;43.162;20.538;2023-12-04T16:17:02;51.72;;;24.35;;
55150;SDS011;41041;43.162;20.538;2023-12-04T16:19:27;42.20;;;22.13;;
55150;SDS011;41041;43.162;20.538;2023-12-04T16:21:55;44.47;;;23.70;;
55150;SDS011;41041;43.162;20.538;2023-12-04T16:27:31;69.45;;;33.22;;
55150;SDS011;41041;43.162;20.538;2023-12-04T16:29:58;50.53;;;25.95;;
55150;SDS011;41041;43.162;20.538;2023-12-04T16:32:24;43.15;;;23.70;;
55150;SDS011;41041;43.162;20.538;2023-12-04T17:12:34;141.63;;;61.88;;
55150;SDS011;41041;43.162;20.538;2023-12-04T17:15:02;117.75;;;52.50;;
55150;SDS011;41041;43.162;20.538;2023-12-04T17:17:41;89.53;;;43.95;;
55150;SDS011;41041;43.162;20.538;2023-12-04T17:23:31;126.85;;;61.33;;
55150;SDS011;41041;43.162;20.538;2023-12-04T17:31:44;61.72;;;31.80;;
55150;SDS011;41041;43.162;20.538;2023-12-04T17:34:10;60.10;;;32.28;;
55150;SDS011;41041;43.162;20.538;2023-12-04T17:39:59;68.78;;;33.90;;
55150;SDS011;41041;43.162;20.538;2023-12-04T17:42:25;65.45;;;33.40;;
55150;SDS011;41041;43.162;20.538;2023-12-04T17:44:51;65.82;;;35.53;;
55150;SDS011;41041;43.162;20.538;2023-12-04T17:47:16;66.63;;;35.10;;
55150;SDS011;41041;43.162;20.538;2023-12-04T17:49:42;67.43;;;34.60;;
55150;SDS011;41041;43.162;20.538;2023-12-04T17:52:08;44.33;;;24.67;;
55150;SDS011;41041;43.162;20.538;2023-12-04T17:54:36;37.08;;;22.50;;
55150;SDS011;41041;43.162;20.538;2023-12-04T17:57:02;52.08;;;29.20;;
55150;SDS011;41041;43.162;20.538;2023-12-04T17:59:27;38.17;;;21.75;;
55150;SDS011;41041;43.162;20.538;2023-12-04T18:01:53;41.42;;;24.73;;
55150;SDS011;41041;43.162;20.538;2023-12-04T18:04:19;44.03;;;27.35;;
55150;SDS011;41041;43.162;20.538;2023-12-04T18:06:45;46.25;;;24.40;;
55150;SDS011;41041;43.162;20.538;2023-12-04T18:09:11;33.63;;;18.67;;
55150;SDS011;41041;43.162;20.538;2023-12-04T18:11:37;30.35;;;17.25;;
55150;SDS011;41041;43.162;20.538;2023-12-04T18:14:03;32.80;;;16.80;;
55150;SDS011;41041;43.162;20.538;2023-12-04T18:16:30;27.08;;;16.17;;
55150;SDS011;41041;43.162;20.538;2023-12-04T18:18:55;41.10;;;21.55;;
55150;SDS011;41041;43.162;20.538;2023-12-04T18:21:22;44.90;;;22.40;;
55150;SDS011;41041;43.162;20.538;2023-12-04T18:27:10;31.85;;;17.45;;
55150;SDS011;41041;43.162;20.538;2023-12-04T18:29:37;32.20;;;17.92;;
55150;SDS011;41041;43.162;20.538;2023-12-04T18:32:03;35.85;;;19.83;;
55150;SDS011;41041;43.162;20.538;2023-12-04T18:34:31;56.53;;;29.27;;
55150;SDS011;41041;43.162;20.538;2023-12-04T18:37:13;57.40;;;29.10;;
55150;SDS011;41041;43.162;20.538;2023-12-04T18:39:49;67.85;;;34.45;;
55150;SDS011;41041;43.162;20.538;2023-12-04T18:42:16;35.28;;;18.77;;
55150;SDS011;41041;43.162;20.538;2023-12-04T18:44:42;56.35;;;28.98;;
55150;SDS011;41041;43.162;20.538;2023-12-04T18:47:08;54.20;;;26.08;;
55150;SDS011;41041;43.162;20.538;2023-12-04T18:49:38;53.92;;;27.50;;
55150;SDS011;41041;43.162;20.538;2023-12-04T18:52:05;54.50;;;27.92;;
55150;SDS011;41041;43.162;20.538;2023-12-04T18:54:31;47.65;;;26.15;;
55150;SDS011;41041;43.162;20.538;2023-12-04T18:56:57;50.88;;;27.75;;
55150;SDS011;41041;43.162;20.538;2023-12-04T18:59:23;52.38;;;28.05;;
55150;SDS011;41041;43.162;20.538;2023-12-04T19:01:49;49.65;;;24.90;;
55150;SDS011;41041;43.162;20.538;2023-12-04T19:04:15;61.22;;;34.08;;
55150;SDS011;41041;43.162;20.538;2023-12-04T19:06:41;60.50;;;33.63;;
55150;SDS011;41041;43.162;20.538;2023-12-04T19:09:08;44.95;;;26.25;;
55150;SDS011;41041;43.162;20.538;2023-12-04T19:11:34;30.83;;;18.75;;